Time;durP1;ratioP1;P1;durP2;ratioP2;P2;SDS_P1;SDS_P2;PMS_P1;PMS_P2;Temp;Humidity;BMP_temperature;BMP_pressure;BME280_temperature;BME280_humidity;BME280_pressure;Samples;Min_cycle;Max_cycle;Signal;HPM_P1;HPM_P2
2024/02/08 00:01:49;;;;;;;6.60;6.40;;;10.30;38.60;;;;;;6278766;22;20138;-77
2024/02/08 00:04:17;;;;;;;5.83;5.73;;;10.30;38.60;;;;;;6252104;22;20206;-78
2024/02/08 00:06:42;;;;;;;6.60;6.40;;;10.30;38.50;;;;;;6280434;22;20571;-78
2024/02/08 00:09:08;;;;;;;5.60;5.40;;;10.30;39.00;;;;;;6280622;22;20420;-79
2024/02/08 00:11:33;;;;;;;5.60;5.50;;;10.40;39.10;;;;;;6280763;22;20544;-79
2024/02/08 00:13:59;;;;;;;6.10;5.90;;;10.40;38.60;;;;;;6281007;22;20170;-78
2024/02/08 00:16:26;;;;;;;5.90;5.80;;;10.40;38.70;;;;;;6253987;22;20225;-78
2024/02/08 00:18:53;;;;;;;5.60;5.40;;;10.40;38.60;;;;;;6255049;22;20182;-78
2024/02/08 00:21:18;;;;;;;5.73;5.60;;;10.40;38.60;;;;;;6280787;22;20374;-78
2024/02/08 00:23:44;;;;;;;5.73;5.53;;;10.40;38.60;;;;;;6250827;22;20431;-78
2024/02/08 00:26:09;;;;;;;5.90;5.80;;;10.40;38.50;;;;;;6280250;22;20194;-78
2024/02/08 00:28:35;;;;;;;5.37;5.27;;;10.40;39.00;;;;;;6280854;22;20170;-79
2024/02/08 00:31:02;;;;;;;5.63;5.53;;;10.40;39.20;;;;;;6280299;22;20601;-77
2024/02/08 00:33:28;;;;;;;5.67;5.47;;;10.40;39.10;;;;;;6251589;22;20709;-78
2024/02/08 00:35:55;;;;;;;5.40;5.20;;;10.40;39.10;;;;;;6251044;22;20424;-79
2024/02/08 00:38:20;;;;;;;5.80;5.60;;;10.40;39.50;;;;;;6278147;22;20197;-77
2024/02/08 00:40:51;;;;;;;5.80;5.60;;;10.40;39.10;;;;;;6278754;22;20373;-78
2024/02/08 00:43:19;;;;;;;5.77;5.57;;;10.40;39.20;;;;;;6253023;22;20166;-79
2024/02/08 00:45:45;;;;;;;5.60;5.50;;;10.40;39.40;;;;;;6282585;22;20381;-78
2024/02/08 00:48:11;;;;;;;5.90;5.80;;;10.40;39.20;;;;;;6280957;22;20397;-79
2024/02/08 00:50:36;;;;;;;5.60;5.50;;;10.40;39.20;;;;;;6252884;22;20885;-79
2024/02/08 00:53:05;;;;;;;5.73;5.63;;;10.40;39.10;;;;;;6252693;22;20849;-79
2024/02/08 00:55:33;;;;;;;5.83;5.63;;;10.40;39.70;;;;;;6280906;22;20231;-79
2024/02/08 00:58:00;;;;;;;5.87;5.73;;;10.50;39.20;;;;;;6279847;22;20411;-79
2024/02/08 01:00:28;;;;;;;6.23;6.03;;;10.40;39.30;;;;;;6278192;22;20369;-78
2024/02/08 01:02:54;;;;;;;5.37;5.27;;;10.40;39.50;;;;;;6251909;22;20381;-78
2024/02/08 01:05:20;;;;;;;5.47;5.37;;;10.40;39.50;;;;;;6252689;22;20389;-79
2024/02/08 01:07:47;;;;;;;5.67;5.57;;;10.50;39.40;;;;;;6279440;22;20413;-79
2024/02/08 01:10:12;;;;;;;5.57;5.37;;;10.50;39.60;;;;;;6280096;22;20381;-78
2024/02/08 01:12:38;;;;;;;5.33;5.13;;;10.50;39.20;;;;;;6280732;22;20400;-78
2024/02/08 01:15:04;;;;;;;5.67;5.47;;;10.50;39.30;;;;;;6277879;22;20250;-78
2024/02/08 01:17:33;;;;;;;5.87;5.67;;;10.50;38.90;;;;;;6277379;22;20143;-77
2024/02/08 01:20:00;;;;;;;5.50;5.40;;;10.50;38.90;;;;;;6278618;22;20423;-78
2024/02/08 01:22:26;;;;;;;5.17;5.07;;;10.50;39.20;;;;;;6283304;22;20369;-78
2024/02/08 01:24:52;;;;;;;5.20;5.10;;;10.50;39.30;;;;;;6281889;22;20692;-79
2024/02/08 01:27:20;;;;;;;5.07;4.97;;;10.50;38.90;;;;;;6253272;22;20397;-78
2024/02/08 01:29:46;;;;;;;5.20;5.10;;;10.50;39.20;;;;;;6284871;22;20173;-81
2024/02/08 01:32:15;;;;;;;5.30;5.20;;;10.50;39.60;;;;;;6279170;22;20373;-79
2024/02/08 01:34:44;;;;;;;5.70;5.50;;;10.50;39.70;;;;;;6251039;22;20922;-78
2024/02/08 01:37:14;;;;;;;5.17;5.07;;;10.60;39.60;;;;;;6276879;22;20393;-78
2024/02/08 01:39:41;;;;;;;5.20;5.10;;;10.50;39.00;;;;;;6250504;22;20381;-78
2024/02/08 01:42:14;;;;;;;5.30;5.20;;;10.60;39.20;;;;;;6278297;22;20468;-78
2024/02/08 01:44:47;;;;;;;5.13;5.03;;;10.60;38.90;;;;;;6253028;22;20381;-79
2024/02/08 01:47:13;;;;;;;5.13;4.93;;;10.60;39.20;;;;;;6279595;22;20385;-79
2024/02/08 01:49:40;;;;;;;4.87;4.77;;;10.60;39.30;;;;;;6254791;22;20464;-78
2024/02/08 01:52:09;;;;;;;5.30;5.20;;;10.50;39.80;;;;;;6281323;22;20377;-78
2024/02/08 01:54:35;;;;;;;5.90;5.70;;;10.50;39.80;;;;;;6280689;22;20417;-79
2024/02/08 01:57:03;;;;;;;5.00;4.90;;;10.50;39.70;;;;;;6253260;22;20385;-79
2024/02/08 01:59:31;;;;;;;5.10;5.00;;;10.50;39.60;;;;;;6253616;22;20170;-78
2024/02/08 02:02:01;;;;;;;5.43;5.33;;;10.50;39.70;;;;;;6254121;22;20440;-79
2024/02/08 02:04:27;;;;;;;5.47;5.37;;;10.60;39.60;;;;;;6280940;22;20378;-79
2024/02/08 02:06:52;;;;;;;6.27;6.07;;;10.60;39.40;;;;;;6279397;22;20787;-79
2024/02/08 02:09:24;;;;;;;5.80;5.70;;;10.60;39.60;;;;;;6284380;22;20416;-79
2024/02/08 02:12:12;;;;;;;5.80;5.70;;;10.60;39.60;;;;;;6284034;22;20574;-79
2024/02/08 02:14:41;;;;;;;6.13;6.00;;;10.60;39.40;;;;;;6282035;22;20467;-79
2024/02/08 02:17:26;;;;;;;5.80;5.60;;;10.60;39.40;;;;;;6253744;22;20393;-79
2024/02/08 02:19:52;;;;;;;5.50;5.40;;;10.60;39.70;;;;;;6281959;22;20362;-79
2024/02/08 02:22:20;;;;;;;5.60;5.50;;;10.60;39.70;;;;;;6279703;22;20407;-79
2024/02/08 02:24:49;;;;;;;5.57;5.37;;;10.60;40.20;;;;;;6282034;22;20474;-79
2024/02/08 02:27:15;;;;;;;5.93;5.73;;;10.60;40.20;;;;;;6254589;22;20732;-79
2024/02/08 02:29:44;;;;;;;5.33;5.23;;;10.60;40.20;;;;;;6282861;22;20433;-79
2024/02/08 02:32:15;;;;;;;5.77;5.57;;;10.60;40.20;;;;;;6285231;22;20445;-77
2024/02/08 02:34:42;;;;;;;5.50;5.40;;;10.60;40.40;;;;;;6258777;22;20413;-78
2024/02/08 02:37:08;;;;;;;5.40;5.20;;;10.60;40.20;;;;;;6258995;22;20385;-78
2024/02/08 02:39:34;;;;;;;4.90;4.80;;;10.60;40.40;;;;;;6258933;22;20847;-78
2024/02/08 02:41:59;;;;;;;5.27;5.17;;;10.60;40.60;;;;;;6285548;22;20623;-78
2024/02/08 02:44:28;;;;;;;5.00;4.90;;;10.60;40.30;;;;;;6254427;22;20154;-78
2024/02/08 02:46:56;;;;;;;5.13;5.03;;;10.60;40.30;;;;;;6279243;22;20233;-78
2024/02/08 02:49:23;;;;;;;5.50;5.30;;;10.60;40.10;;;;;;6281582;22;20579;-78
2024/02/08 02:51:49;;;;;;;4.80;4.60;;;10.60;40.30;;;;;;6279894;22;20412;-79
2024/02/08 02:54:16;;;;;;;4.90;4.80;;;10.60;40.50;;;;;;6280487;22;20413;-79
2024/02/08 02:56:46;;;;;;;4.93;4.83;;;10.60;40.30;;;;;;6279015;22;20381;-78
2024/02/08 02:59:16;;;;;;;4.60;4.50;;;10.60;40.50;;;;;;6279090;22;20385;-78
2024/02/08 03:01:45;;;;;;;4.60;4.50;;;10.60;40.40;;;;;;6281491;22;20396;-78
2024/02/08 03:04:10;;;;;;;4.80;4.70;;;10.60;40.50;;;;;;6283145;22;20424;-78
2024/02/08 03:06:40;;;;;;;4.83;4.60;;;10.60;40.50;;;;;;6251233;22;20381;-78
2024/02/08 03:09:14;;;;;;;5.47;5.30;;;10.60;40.70;;;;;;6281437;22;20186;-80
2024/02/08 03:11:42;;;;;;;5.60;5.40;;;10.60;41.10;;;;;;6254572;22;20444;-77
2024/02/08 03:14:08;;;;;;;4.70;4.60;;;10.60;40.90;;;;;;6281995;22;20413;-80
2024/02/08 03:16:36;;;;;;;5.10;5.00;;;10.60;40.80;;;;;;6280415;22;20381;-78
2024/02/08 03:19:05;;;;;;;4.90;4.80;;;10.60;41.10;;;;;;6280293;22;20412;-79
2024/02/08 03:21:32;;;;;;;5.73;5.63;;;10.60;41.10;;;;;;6281555;22;20370;-79
2024/02/08 03:23:58;;;;;;;5.10;5.00;;;10.60;40.90;;;;;;6282389;22;20376;-79
2024/02/08 03:26:24;;;;;;;5.43;5.30;;;10.60;40.70;;;;;;6282015;22;20452;-78
2024/02/08 03:28:51;;;;;;;5.40;5.30;;;10.60;40.70;;;;;;6254686;22;20504;-78
2024/02/08 03:31:17;;;;;;;5.70;5.60;;;10.60;40.70;;;;;;6280497;22;20603;-78
2024/02/08 03:33:43;;;;;;;5.10;5.00;;;10.60;40.50;;;;;;6251720;22;20381;-78
2024/02/08 03:36:09;;;;;;;5.40;5.30;;;10.60;40.50;;;;;;6253922;22;20456;-78
2024/02/08 03:38:35;;;;;;;5.90;5.80;;;10.70;40.50;;;;;;6278435;22;20869;-78
2024/02/08 03:41:01;;;;;;;6.27;6.07;;;10.70;40.20;;;;;;6281749;22;20200;-79
2024/02/08 03:43:27;;;;;;;5.50;5.40;;;10.70;40.20;;;;;;6281488;22;20143;-79
2024/02/08 03:45:56;;;;;;;5.63;5.53;;;10.70;39.80;;;;;;6281231;22;20399;-79
2024/02/08 03:48:22;;;;;;;5.63;5.53;;;10.70;39.80;;;;;;6281159;22;20882;-79
2024/02/08 03:50:50;;;;;;;5.60;5.50;;;10.80;39.30;;;;;;6255038;22;20385;-79
2024/02/08 03:53:17;;;;;;;6.07;5.87;;;10.80;39.30;;;;;;6254027;22;20392;-77
2024/02/08 03:55:43;;;;;;;5.77;5.67;;;10.80;39.40;;;;;;6279275;22;20413;-78
2024/02/08 03:58:09;;;;;;;6.43;6.23;;;10.80;39.60;;;;;;6250441;22;20413;-78
2024/02/08 04:00:35;;;;;;;6.50;6.30;;;10.80;39.00;;;;;;6278205;22;20150;-80
2024/02/08 04:03:06;;;;;;;5.83;5.73;;;10.80;39.50;;;;;;6281865;22;20366;-79
2024/02/08 04:54:35;;;;;;;6.17;5.93;;;11.00;39.60;;;;;;6281504;22;20511;-77
2024/02/08 04:57:00;;;;;;;6.43;6.23;;;11.00;39.40;;;;;;6279573;22;20369;-78
2024/02/08 04:59:26;;;;;;;5.97;5.83;;;11.00;40.00;;;;;;6277481;22;20167;-78
2024/02/08 05:01:55;;;;;;;5.83;5.63;;;11.00;40.30;;;;;;6278792;22;20142;-78
2024/02/08 05:04:21;;;;;;;5.60;5.50;;;11.00;40.00;;;;;;6277699;22;20369;-78
2024/02/08 05:06:47;;;;;;;5.83;5.63;;;11.00;40.30;;;;;;6277835;22;20854;-78
2024/02/08 05:09:19;;;;;;;6.37;6.10;;;11.00;40.90;;;;;;6277687;22;20444;-77
2024/02/08 05:11:45;;;;;;;5.87;5.67;;;10.90;40.40;;;;;;6278214;22;20580;-79
2024/02/08 05:14:10;;;;;;;5.87;5.67;;;11.00;41.20;;;;;;6280462;22;20467;-78
2024/02/08 05:16:37;;;;;;;5.50;5.20;;;10.90;41.00;;;;;;6279623;22;20385;-78
2024/02/08 05:19:09;;;;;;;5.83;5.63;;;10.90;41.30;;;;;;6280420;22;20177;-78
2024/02/08 05:21:40;;;;;;;5.53;5.40;;;10.90;42.40;;;;;;6280690;22;20346;-79
2024/02/08 05:24:12;;;;;;;5.90;5.80;;;10.90;42.40;;;;;;6252426;22;20404;-78
2024/02/08 05:26:40;;;;;;;5.80;5.60;;;10.80;42.70;;;;;;6279049;22;20357;-78
2024/02/08 05:29:06;;;;;;;4.77;4.67;;;10.80;43.00;;;;;;6252963;22;20401;-78
2024/02/08 05:31:39;;;;;;;5.43;5.27;;;10.70;44.20;;;;;;6279122;22;20859;-79
2024/02/08 05:34:10;;;;;;;5.33;5.13;;;10.70;44.90;;;;;;6279790;22;20380;-78
2024/02/08 05:36:39;;;;;;;5.10;4.90;;;10.60;45.40;;;;;;6251228;22;20369;-78
2024/02/08 05:39:05;;;;;;;4.93;4.63;;;10.60;46.20;;;;;;6279746;22;20396;-79
2024/02/08 05:41:33;;;;;;;4.67;4.57;;;10.60;46.50;;;;;;6279633;22;20383;-79
2024/02/08 05:44:05;;;;;;;4.43;4.33;;;10.50;46.00;;;;;;6280440;22;20376;-79
2024/02/08 05:46:37;;;;;;;5.00;4.80;;;10.60;46.20;;;;;;6251059;22;20377;-77
2024/02/08 05:49:04;;;;;;;4.80;4.70;;;10.60;46.50;;;;;;6296297;22;20417;-77
2024/02/08 05:51:31;;;;;;;4.03;3.87;;;10.60;46.00;;;;;;6301078;22;20380;-78
2024/02/08 05:54:01;;;;;;;5.17;4.93;;;10.60;45.60;;;;;;6303199;22;20400;-78
2024/02/08 05:56:30;;;;;;;4.37;4.27;;;10.60;46.20;;;;;;6276002;22;20404;-78
2024/02/08 05:59:01;;;;;;;4.70;4.60;;;10.60;46.40;;;;;;6301856;22;20385;-77
2024/02/08 06:01:31;;;;;;;4.73;4.53;;;10.60;46.40;;;;;;6299402;22;20362;-78
2024/02/08 06:04:00;;;;;;;5.33;5.13;;;10.60;47.30;;;;;;6255005;22;20373;-78
2024/02/08 06:06:34;;;;;;;4.87;4.77;;;10.60;47.30;;;;;;6277620;22;20445;-78
2024/02/08 06:09:08;;;;;;;4.63;4.33;;;10.60;47.60;;;;;;6277470;22;20873;-78
2024/02/08 06:11:37;;;;;;;5.33;5.03;;;10.60;48.80;;;;;;6277043;22;20382;-78
2024/02/08 06:14:12;;;;;;;4.70;4.60;;;10.60;49.00;;;;;;6277219;22;20683;-78
2024/02/08 06:16:47;;;;;;;4.47;4.30;;;10.60;48.60;;;;;;6283265;22;20365;-78
2024/02/08 06:19:15;;;;;;;5.23;4.93;;;10.60;49.00;;;;;;6282305;22;20404;-78
2024/02/08 06:21:41;;;;;;;4.97;4.77;;;10.50;49.40;;;;;;6280576;22;20376;-78
2024/02/08 06:27:02;;;;;;;5.20;4.90;;;10.60;50.20;;;;;;6267249;22;20389;-78
2024/02/08 06:29:46;;;;;;;4.87;4.57;;;10.50;49.40;;;;;;6253691;22;20404;-78
2024/02/08 06:32:23;;;;;;;5.90;5.70;;;10.50;49.70;;;;;;6280780;22;20143;-78
2024/02/08 06:37:44;;;;;;;5.40;5.20;;;10.40;50.40;;;;;;6281065;22;20397;-78
2024/02/08 07:39:46;;;;;;;4.70;3.80;;;10.70;52.00;;;;;;6289831;22;20372;-80
2024/02/08 07:42:41;;;;;;;4.33;4.13;;;10.70;51.60;;;;;;6286349;22;20409;-81
2024/02/08 07:45:04;;;;;;;4.30;4.10;;;10.70;51.30;;;;;;6269364;22;20374;-80
2024/02/08 07:47:33;;;;;;;4.50;4.30;;;10.60;51.40;;;;;;6258419;22;20408;-79
2024/02/08 07:50:04;;;;;;;3.87;3.67;;;10.60;51.90;;;;;;6260625;22;20373;-80
2024/02/08 07:52:45;;;;;;;4.47;4.37;;;10.70;51.30;;;;;;6260096;22;20397;-79
2024/02/08 07:55:20;;;;;;;4.43;4.23;;;10.70;51.70;;;;;;6287020;22;20401;-79
2024/02/08 07:57:57;;;;;;;4.80;4.50;;;10.70;51.20;;;;;;6259992;22;20396;-79
2024/02/08 08:03:09;;;;;;;4.33;4.23;;;10.70;49.80;;;;;;6290349;22;20361;-77
2024/02/08 08:05:44;;;;;;;4.03;3.93;;;10.80;50.20;;;;;;6280758;22;20362;-78
2024/02/08 08:08:25;;;;;;;5.03;4.83;;;10.80;50.30;;;;;;6259439;22;20718;-80
2024/02/08 08:11:06;;;;;;;4.50;4.40;;;10.90;49.80;;;;;;6282927;22;20444;-79
2024/02/08 08:14:09;;;;;;;5.07;4.60;;;10.90;49.60;;;;;;6258226;22;20369;-79
2024/02/08 08:19:07;;;;;;;4.87;4.73;;;10.90;49.60;;;;;;6285475;22;20424;-78
2024/02/08 08:22:03;;;;;;;4.77;4.57;;;10.90;49.80;;;;;;6256908;22;20230;-80
2024/02/08 08:24:26;;;;;;;5.30;5.03;;;10.90;49.80;;;;;;6281738;22;20400;-84
2024/02/08 08:27:25;;;;;;;5.10;4.80;;;10.90;49.90;;;;;;6253014;22;20475;-81
2024/02/08 08:29:44;;;;;;;4.70;4.50;;;11.00;48.80;;;;;;6280828;22;20713;-79
2024/02/08 08:37:46;;;;;;;5.07;4.97;;;11.00;48.40;;;;;;6283830;22;20412;-80
2024/02/08 08:40:25;;;;;;;4.57;4.40;;;11.00;48.10;;;;;;6258103;22;20455;-79
2024/02/08 08:42:54;;;;;;;5.27;5.07;;;11.00;48.60;;;;;;6256123;22;20376;-80
2024/02/08 08:45:20;;;;;;;5.03;4.83;;;11.10;48.90;;;;;;6256829;22;20887;-79
2024/02/08 08:47:48;;;;;;;5.13;5.00;;;11.10;48.60;;;;;;6281287;22;20459;-79
2024/02/08 08:50:20;;;;;;;4.60;4.40;;;11.10;47.90;;;;;;6254536;22;20178;-79
2024/02/08 08:52:57;;;;;;;4.80;4.70;;;11.10;48.40;;;;;;6286003;22;20449;-79
2024/02/08 08:55:23;;;;;;;6.47;6.17;;;11.10;48.00;;;;;;6289840;22;20405;-80
2024/02/08 08:57:54;;;;;;;5.70;5.40;;;11.20;49.10;;;;;;6287988;22;20439;-80
2024/02/08 09:00:32;;;;;;;5.37;5.17;;;11.20;48.70;;;;;;6287314;22;20177;-80
2024/02/08 09:02:59;;;;;;;5.33;4.97;;;11.20;48.20;;;;;;6287384;22;20691;-80
2024/02/08 09:05:30;;;;;;;5.77;5.57;;;11.20;48.30;;;;;;6286603;22;20771;-80
2024/02/08 09:08:09;;;;;;;5.30;5.10;;;11.20;47.90;;;;;;6258243;22;20397;-80
2024/02/08 09:10:40;;;;;;;5.33;5.13;;;11.30;48.20;;;;;;6286115;22;20393;-80
2024/02/08 09:13:07;;;;;;;5.63;5.43;;;11.40;47.80;;;;;;6258691;22;20415;-80
2024/02/08 09:15:47;;;;;;;5.53;5.33;;;11.40;47.70;;;;;;6286639;22;20413;-79
2024/02/08 09:18:15;;;;;;;5.57;5.37;;;11.30;46.70;;;;;;6284595;22;20405;-79
2024/02/08 09:20:44;;;;;;;5.20;5.00;;;11.40;46.80;;;;;;6257671;22;20382;-79
2024/02/08 09:23:17;;;;;;;4.83;4.73;;;11.40;46.80;;;;;;6258817;22;20416;-80
2024/02/08 09:25:46;;;;;;;5.50;5.30;;;11.40;47.00;;;;;;6286359;22;20368;-80
2024/02/08 09:28:26;;;;;;;5.63;5.43;;;11.50;46.90;;;;;;6257612;22;20461;-80
2024/02/08 09:30:59;;;;;;;4.90;4.70;;;11.50;46.80;;;;;;6284304;22;20826;-80
2024/02/08 09:33:31;;;;;;;5.93;5.53;;;11.50;46.50;;;;;;6283649;22;20376;-80
2024/02/08 09:35:59;;;;;;;5.50;5.30;;;11.50;46.80;;;;;;6283636;22;20408;-79
2024/02/08 09:38:28;;;;;;;5.50;5.30;;;11.50;46.60;;;;;;6282633;22;20401;-79
2024/02/08 09:40:59;;;;;;;5.37;5.17;;;11.50;46.80;;;;;;6282961;22;20420;-80
2024/02/08 09:43:29;;;;;;;5.43;5.30;;;11.50;47.20;;;;;;6284722;22;20671;-80
2024/02/08 09:46:10;;;;;;;4.63;4.43;;;11.50;47.00;;;;;;6284030;22;20373;-80
2024/02/08 09:48:46;;;;;;;5.50;5.30;;;11.50;46.90;;;;;;6283483;22;20393;-80
2024/02/08 09:51:13;;;;;;;5.10;4.90;;;11.60;46.60;;;;;;6285164;22;20421;-80
2024/02/08 09:53:51;;;;;;;5.70;5.50;;;11.60;46.70;;;;;;6285111;22;20407;-80
2024/02/08 09:56:37;;;;;;;4.70;4.60;;;11.60;46.60;;;;;;6257029;22;20417;-80
2024/02/08 09:59:07;;;;;;;5.30;5.10;;;11.60;46.40;;;;;;6256198;22;20488;-79
2024/02/08 10:01:43;;;;;;;5.13;5.03;;;11.70;45.30;;;;;;6282448;22;20457;-79
2024/02/08 10:04:16;;;;;;;6.07;5.87;;;11.70;44.80;;;;;;6255005;22;20862;-79
2024/02/08 10:06:58;;;;;;;5.10;4.90;;;11.70;45.50;;;;;;6280977;22;20374;-79
2024/02/08 10:09:36;;;;;;;5.73;5.60;;;11.70;45.40;;;;;;6269675;22;20451;-82
2024/02/08 10:12:11;;;;;;;5.90;5.70;;;11.70;44.70;;;;;;6287100;22;20358;-82
2024/02/08 10:14:59;;;;;;;5.17;4.97;;;11.70;44.60;;;;;;6257766;22;20420;-82
2024/02/08 10:17:25;;;;;;;6.03;5.83;;;11.80;44.50;;;;;;6253866;22;20385;-82
2024/02/08 10:22:53;;;;;;;6.07;5.70;;;11.80;43.80;;;;;;6258972;23;20139;-82
2024/02/08 10:28:13;;;;;;;5.97;5.43;;;11.90;44.10;;;;;;6265461;22;20405;-81
2024/02/08 10:30:44;;;;;;;6.07;5.87;;;11.90;44.10;;;;;;6235201;23;20393;-82
2024/02/08 10:33:14;;;;;;;6.10;5.80;;;11.90;43.30;;;;;;6230816;23;20370;-84
2024/02/08 10:35:40;;;;;;;5.43;5.23;;;11.90;43.30;;;;;;6230011;23;20918;-81
2024/02/08 10:38:25;;;;;;;5.67;5.47;;;12.00;43.00;;;;;;6256209;22;20382;-82
2024/02/08 10:40:55;;;;;;;6.30;5.90;;;12.00;43.10;;;;;;6226512;23;20921;-82
2024/02/08 10:43:25;;;;;;;6.03;5.83;;;12.10;42.20;;;;;;6225781;23;20454;-81
2024/02/08 10:46:02;;;;;;;6.20;5.90;;;12.10;42.20;;;;;;6224489;23;20465;-82
2024/02/08 10:48:29;;;;;;;6.30;6.10;;;12.10;42.50;;;;;;6223170;23;20469;-83
2024/02/08 10:51:02;;;;;;;5.43;5.33;;;12.10;43.40;;;;;;6223586;23;20769;-81
2024/02/08 10:53:43;;;;;;;6.23;5.90;;;12.10;43.00;;;;;;6251843;23;20549;-82
2024/02/08 10:56:14;;;;;;;6.10;5.90;;;12.00;43.60;;;;;;6229114;23;20418;-84
2024/02/08 11:04:20;;;;;;;5.57;5.37;;;11.90;45.30;;;;;;6265587;23;20381;-83
2024/02/08 11:07:06;;;;;;;5.20;5.00;;;11.90;44.10;;;;;;6226012;23;20474;-83
2024/02/08 11:09:35;;;;;;;5.10;5.00;;;11.90;44.70;;;;;;6228970;23;20453;-84
2024/02/08 11:12:21;;;;;;;5.20;4.93;;;12.00;45.40;;;;;;6226778;23;20436;-81
2024/02/08 11:15:13;;;;;;;5.10;5.00;;;12.00;44.90;;;;;;6223147;23;20418;-83
2024/02/08 11:17:49;;;;;;;5.50;5.30;;;12.10;45.00;;;;;;6224205;23;20363;-82
2024/02/08 11:20:44;;;;;;;5.10;5.00;;;12.20;44.70;;;;;;6252802;23;20719;-81
2024/02/08 11:23:11;;;;;;;5.17;5.00;;;12.20;43.90;;;;;;6227853;23;20421;-84
2024/02/08 11:25:44;;;;;;;5.50;5.30;;;12.20;44.70;;;;;;6236757;23;20453;-85
2024/02/08 11:28:13;;;;;;;5.70;5.40;;;12.20;43.10;;;;;;6235479;23;20517;-82
2024/02/08 11:30:39;;;;;;;5.10;5.00;;;12.30;43.60;;;;;;6231836;23;20390;-84
2024/02/08 11:33:12;;;;;;;5.60;5.40;;;12.40;43.70;;;;;;6231326;23;20393;-83
2024/02/08 11:35:45;;;;;;;5.50;5.20;;;12.40;41.90;;;;;;6255485;23;20412;-82
2024/02/08 11:38:21;;;;;;;5.50;5.33;;;12.40;41.70;;;;;;6256156;22;20765;-83
2024/02/08 11:40:47;;;;;;;5.17;4.97;;;12.40;42.20;;;;;;6228821;23;20373;-84
2024/02/08 11:43:31;;;;;;;5.70;5.40;;;12.50;41.80;;;;;;6256414;23;20405;-84
2024/02/08 11:45:57;;;;;;;6.00;5.50;;;12.60;41.40;;;;;;6229144;23;20394;-84
2024/02/08 11:48:28;;;;;;;5.80;5.70;;;12.60;40.00;;;;;;6228414;23;20406;-82
2024/02/08 11:51:09;;;;;;;5.57;5.17;;;12.60;39.60;;;;;;6229510;23;20246;-83
2024/02/08 11:53:35;;;;;;;5.50;5.40;;;12.60;40.40;;;;;;6231493;23;20374;-83
2024/02/08 11:56:09;;;;;;;5.47;5.27;;;12.70;40.00;;;;;;6232890;23;20434;-83
2024/02/08 11:58:46;;;;;;;6.83;6.53;;;12.70;39.90;;;;;;6233102;23;20794;-82
2024/02/08 12:01:17;;;;;;;6.20;5.90;;;12.80;39.50;;;;;;6233614;23;20862;-83
2024/02/08 12:03:44;;;;;;;6.40;6.20;;;12.80;39.20;;;;;;6260873;23;20390;-81
2024/02/08 12:06:21;;;;;;;6.43;6.13;;;12.80;38.80;;;;;;6234231;23;20366;-83
2024/02/08 12:08:59;;;;;;;7.13;6.90;;;12.80;39.00;;;;;;6232430;23;20489;-83
2024/02/08 12:11:29;;;;;;;6.70;6.50;;;12.80;38.60;;;;;;6233299;23;20386;-83
2024/02/08 12:14:04;;;;;;;7.20;6.70;;;12.90;38.30;;;;;;6231778;23;20378;-83
2024/02/08 12:16:30;;;;;;;6.70;6.40;;;12.80;38.20;;;;;;6227613;23;20378;-83
2024/02/08 12:18:57;;;;;;;7.57;7.13;;;12.90;39.00;;;;;;6228229;23;20397;-83
2024/02/08 12:21:23;;;;;;;6.90;6.60;;;12.90;38.40;;;;;;6228340;23;20375;-82
2024/02/08 12:23:53;;;;;;;7.33;6.90;;;12.90;37.90;;;;;;6255583;23;20373;-82
2024/02/08 12:26:22;;;;;;;6.90;6.60;;;12.90;36.60;;;;;;6228919;23;20378;-82
2024/02/08 12:28:55;;;;;;;7.60;7.10;;;13.00;37.10;;;;;;6228298;23;20399;-82
2024/02/08 12:31:24;;;;;;;6.80;6.50;;;13.00;36.60;;;;;;6230205;23;20426;-83
2024/02/08 12:33:51;;;;;;;7.57;7.20;;;13.00;36.40;;;;;;6200376;23;20382;-83
2024/02/08 12:36:19;;;;;;;7.67;7.33;;;13.00;36.00;;;;;;6223797;23;21049;-83
2024/02/08 12:38:46;;;;;;;7.20;6.80;;;13.00;36.70;;;;;;6249314;22;20405;-83
2024/02/08 12:41:12;;;;;;;7.80;7.30;;;13.00;35.00;;;;;;6224562;23;20429;-82
2024/02/08 12:43:38;;;;;;;8.13;7.60;;;13.10;35.70;;;;;;6223663;23;20379;-82
2024/02/08 12:46:07;;;;;;;8.33;7.60;;;13.10;35.30;;;;;;6223771;23;20771;-82
2024/02/08 12:48:36;;;;;;;8.57;7.97;;;13.10;34.20;;;;;;6223166;23;20432;-83
2024/02/08 12:51:03;;;;;;;7.20;6.93;;;13.10;34.80;;;;;;6225315;23;20875;-84
2024/02/08 12:53:32;;;;;;;7.97;7.57;;;13.10;34.20;;;;;;6257494;23;20382;-83
2024/02/08 12:56:10;;;;;;;7.83;7.13;;;13.20;34.30;;;;;;6227528;23;20426;-84
2024/02/08 12:58:36;;;;;;;7.87;7.30;;;13.20;33.40;;;;;;6227260;23;20398;-85
2024/02/08 13:01:07;;;;;;;7.53;7.13;;;13.20;32.80;;;;;;6227409;23;21007;-82
2024/02/08 13:03:36;;;;;;;8.23;7.83;;;13.20;32.80;;;;;;6227389;23;20377;-83
2024/02/08 13:06:03;;;;;;;8.13;7.40;;;13.20;32.30;;;;;;6253667;23;20413;-82
2024/02/08 13:08:36;;;;;;;8.53;7.60;;;13.20;32.30;;;;;;6253773;22;20413;-83
2024/02/08 13:11:02;;;;;;;8.63;7.93;;;13.20;31.30;;;;;;6228333;23;20508;-82
2024/02/08 13:13:28;;;;;;;9.40;8.33;;;13.20;32.10;;;;;;6226260;23;20770;-81
2024/02/08 13:16:01;;;;;;;9.00;8.27;;;13.30;31.40;;;;;;6227118;23;20418;-82
2024/02/08 13:18:29;;;;;;;10.83;9.17;;;13.30;31.30;;;;;;6226910;23;20896;-82
2024/02/08 13:20:58;;;;;;;9.60;8.90;;;13.30;31.50;;;;;;6254324;23;20374;-84
2024/02/08 13:23:27;;;;;;;9.93;8.97;;;13.40;31.50;;;;;;6253574;23;20370;-83
2024/02/08 13:25:54;;;;;;;9.67;8.80;;;13.40;31.10;;;;;;6226829;23;20721;-82
2024/02/08 13:28:23;;;;;;;9.87;9.00;;;13.40;30.80;;;;;;6225847;23;20811;-83
2024/02/08 13:30:53;;;;;;;8.93;8.37;;;13.40;29.80;;;;;;6228026;23;20382;-83
2024/02/08 13:33:20;;;;;;;9.47;8.70;;;13.40;30.20;;;;;;6226027;23;20382;-84
2024/02/08 13:35:52;;;;;;;11.30;9.30;;;13.50;30.00;;;;;;6226548;23;20449;-83
2024/02/08 13:38:22;;;;;;;13.83;9.53;;;13.50;29.90;;;;;;6226129;23;20402;-83
2024/02/08 13:40:52;;;;;;;9.50;8.70;;;13.40;28.30;;;;;;6226685;23;20381;-83
2024/02/08 13:43:19;;;;;;;10.37;9.03;;;13.40;29.20;;;;;;6253391;23;20403;-83
2024/02/08 13:45:46;;;;;;;11.03;9.20;;;13.50;29.60;;;;;;6252798;23;20381;-83
2024/02/08 13:48:15;;;;;;;12.10;9.50;;;13.60;30.00;;;;;;6255391;22;20394;-83
2024/02/08 13:50:46;;;;;;;9.30;8.70;;;13.50;29.00;;;;;;6256372;23;20374;-85
2024/02/08 13:53:15;;;;;;;9.40;8.70;;;13.60;29.30;;;;;;6227767;23;20375;-83
2024/02/08 13:55:52;;;;;;;14.87;9.33;;;13.60;29.20;;;;;;6226656;23;20421;-83
2024/02/08 13:58:20;;;;;;;14.23;9.40;;;13.70;28.80;;;;;;6225569;23;20394;-84
2024/02/08 14:00:49;;;;;;;10.77;9.50;;;13.60;29.00;;;;;;6226009;23;20919;-84
2024/02/08 14:03:15;;;;;;;10.77;10.07;;;13.60;28.90;;;;;;6226295;23;20393;-83
2024/02/08 14:05:41;;;;;;;12.43;9.63;;;13.60;29.10;;;;;;6225486;23;20446;-82
2024/02/08 14:08:09;;;;;;;12.53;10.60;;;13.50;28.70;;;;;;6225006;22;20311;-83
2024/02/08 14:10:36;;;;;;;12.40;10.90;;;13.50;28.70;;;;;;6225313;23;20375;-82
2024/02/08 14:13:14;;;;;;;13.83;9.60;;;13.50;29.00;;;;;;6226419;23;20383;-84
2024/02/08 14:15:45;;;;;;;13.30;9.67;;;13.60;28.90;;;;;;6225434;23;20420;-82
2024/02/08 14:18:22;;;;;;;11.97;10.77;;;13.60;28.90;;;;;;6224172;23;20443;-84
2024/02/08 14:20:56;;;;;;;11.57;9.90;;;13.60;29.20;;;;;;6226053;23;20412;-84
2024/02/08 14:23:38;;;;;;;11.63;10.30;;;13.60;28.80;;;;;;6224806;23;20378;-82
2024/02/08 14:28:31;;;;;;;11.47;8.93;;;13.70;28.60;;;;;;6252860;22;20398;-83
2024/02/08 14:31:00;;;;;;;10.60;9.50;;;13.60;28.20;;;;;;6225435;23;20751;-81
2024/02/08 14:33:29;;;;;;;10.77;9.77;;;13.60;28.50;;;;;;6225907;23;20155;-81
2024/02/08 14:35:55;;;;;;;11.10;9.90;;;13.60;28.70;;;;;;6253180;23;20414;-83
2024/02/08 14:38:21;;;;;;;13.67;10.70;;;13.60;28.20;;;;;;6224826;23;20421;-83
2024/02/08 14:40:47;;;;;;;11.17;10.07;;;13.50;28.10;;;;;;6225720;23;20378;-83
2024/02/08 14:43:25;;;;;;;11.43;9.13;;;13.50;28.40;;;;;;6252635;23;20376;-83
2024/02/08 14:45:54;;;;;;;13.13;10.70;;;13.50;28.20;;;;;;6225542;23;20151;-82
2024/02/08 14:48:37;;;;;;;11.70;10.47;;;13.50;28.50;;;;;;6251762;22;20391;-83
2024/02/08 14:53:44;;;;;;;11.67;10.20;;;13.50;28.10;;;;;;6263753;23;20374;-82
2024/02/08 14:56:18;;;;;;;13.57;10.50;;;13.50;28.30;;;;;;6228141;23;20429;-82
2024/02/08 14:58:56;;;;;;;12.43;8.63;;;13.50;28.20;;;;;;6254166;22;20465;-83
2024/02/08 15:04:17;;;;;;;9.93;8.93;;;13.40;28.40;;;;;;6254059;23;20412;-82
2024/02/08 15:12:22;;;;;;;11.63;10.30;;;13.40;28.30;;;;;;6254503;23;20387;-83
2024/02/08 15:14:47;;;;;;;12.17;9.60;;;13.40;28.60;;;;;;6227751;23;20424;-83
2024/02/08 15:17:19;;;;;;;13.87;10.67;;;13.40;28.70;;;;;;6254484;23;20375;-84
2024/02/08 15:19:45;;;;;;;12.33;10.10;;;13.40;28.40;;;;;;6255994;22;20164;-84
2024/02/08 15:22:18;;;;;;;14.73;11.90;;;13.40;28.50;;;;;;6228513;23;20385;-85
2024/02/08 15:24:47;;;;;;;18.93;10.80;;;13.40;28.70;;;;;;6254034;23;20389;-83
2024/02/08 15:27:18;;;;;;;13.87;10.40;;;13.40;28.70;;;;;;6228270;23;20417;-83
2024/02/08 15:29:52;;;;;;;12.20;10.63;;;13.40;28.70;;;;;;6228854;23;20406;-83
2024/02/08 15:32:30;;;;;;;11.67;10.63;;;13.40;28.40;;;;;;6229356;23;20370;-84